sensor_id;sensor_type;location;lat;lon;timestamp;temperature;humidity
4509;DHT22;2267;48.816;9.230;2023-03-08T00:02:07;6.60;77.20
4509;DHT22;2267;48.816;9.230;2023-03-08T00:04:33;6.50;77.10
4509;DHT22;2267;48.816;9.230;2023-03-08T00:07:00;6.50;77.30
4509;DHT22;2267;48.816;9.230;2023-03-08T00:09:27;6.50;77.60
4509;DHT22;2267;48.816;9.230;2023-03-08T00:11:54;6.50;77.70
4509;DHT22;2267;48.816;9.230;2023-03-08T00:14:21;6.40;77.70
4509;DHT22;2267;48.816;9.230;2023-03-08T00:16:48;6.40;77.90
4509;DHT22;2267;48.816;9.230;2023-03-08T00:19:15;6.40;78.00
4509;DHT22;2267;48.816;9.230;2023-03-08T00:21:41;6.40;78.20
4509;DHT22;2267;48.816;9.230;2023-03-08T00:24:09;6.40;78.20
4509;DHT22;2267;48.816;9.230;2023-03-08T00:26:36;6.40;78.20
4509;DHT22;2267;48.816;9.230;2023-03-08T00:29:03;6.50;78.40
4509;DHT22;2267;48.816;9.230;2023-03-08T00:31:30;6.40;78.30
4509;DHT22;2267;48.816;9.230;2023-03-08T00:33:57;6.50;78.50
4509;DHT22;2267;48.816;9.230;2023-03-08T00:36:23;6.50;78.60
4509;DHT22;2267;48.816;9.230;2023-03-08T00:38:50;6.50;78.50
4509;DHT22;2267;48.816;9.230;2023-03-08T00:41:18;6.50;78.60
4509;DHT22;2267;48.816;9.230;2023-03-08T00:43:45;6.50;78.60
4509;DHT22;2267;48.816;9.230;2023-03-08T00:46:12;6.50;78.80
4509;DHT22;2267;48.816;9.230;2023-03-08T00:48:40;6.50;78.70
4509;DHT22;2267;48.816;9.230;2023-03-08T00:51:08;6.50;78.70
4509;DHT22;2267;48.816;9.230;2023-03-08T00:53:37;6.50;78.80
4509;DHT22;2267;48.816;9.230;2023-03-08T00:56:04;6.50;78.90
4509;DHT22;2267;48.816;9.230;2023-03-08T00:58:31;6.50;78.90
4509;DHT22;2267;48.816;9.230;2023-03-08T01:00:58;6.50;78.90
4509;DHT22;2267;48.816;9.230;2023-03-08T01:03:25;6.50;79.00
4509;DHT22;2267;48.816;9.230;2023-03-08T01:05:54;6.50;79.10
4509;DHT22;2267;48.816;9.230;2023-03-08T01:08:22;6.50;79.30
4509;DHT22;2267;48.816;9.230;2023-03-08T01:10:52;6.50;79.50
4509;DHT22;2267;48.816;9.230;2023-03-08T01:13:19;6.50;79.40
4509;DHT22;2267;48.816;9.230;2023-03-08T01:15:46;6.50;79.30
4509;DHT22;2267;48.816;9.230;2023-03-08T01:18:13;6.50;79.40
4509;DHT22;2267;48.816;9.230;2023-03-08T01:20:40;6.40;80.30
4509;DHT22;2267;48.816;9.230;2023-03-08T01:23:07;6.50;79.70
4509;DHT22;2267;48.816;9.230;2023-03-08T01:25:34;6.40;79.70
4509;DHT22;2267;48.816;9.230;2023-03-08T01:28:01;6.40;79.90
4509;DHT22;2267;48.816;9.230;2023-03-08T01:30:28;6.40;80.00
4509;DHT22;2267;48.816;9.230;2023-03-08T01:32:55;6.40;80.20
4509;DHT22;2267;48.816;9.230;2023-03-08T01:35:21;6.30;80.20
4509;DHT22;2267;48.816;9.230;2023-03-08T01:37:51;6.30;80.40
4509;DHT22;2267;48.816;9.230;2023-03-08T01:40:21;6.20;80.50
4509;DHT22;2267;48.816;9.230;2023-03-08T01:42:48;6.20;80.70
4509;DHT22;2267;48.816;9.230;2023-03-08T01:48:23;6.20;81.10
4509;DHT22;2267;48.816;9.230;2023-03-08T01:50:51;6.10;81.40
4509;DHT22;2267;48.816;9.230;2023-03-08T01:53:18;6.10;81.50
4509;DHT22;2267;48.816;9.230;2023-03-08T01:55:44;6.10;81.50
4509;DHT22;2267;48.816;9.230;2023-03-08T01:58:12;6.10;81.60
4509;DHT22;2267;48.816;9.230;2023-03-08T02:00:39;6.10;81.70
4509;DHT22;2267;48.816;9.230;2023-03-08T02:03:10;6.10;81.80
4509;DHT22;2267;48.816;9.230;2023-03-08T02:05:41;6.00;81.80
4509;DHT22;2267;48.816;9.230;2023-03-08T02:08:09;6.00;81.90
4509;DHT22;2267;48.816;9.230;2023-03-08T02:10:36;6.00;82.00
4509;DHT22;2267;48.816;9.230;2023-03-08T02:13:04;6.00;82.10
4509;DHT22;2267;48.816;9.230;2023-03-08T02:15:32;5.90;82.20
4509;DHT22;2267;48.816;9.230;2023-03-08T02:17:58;5.90;83.10
4509;DHT22;2267;48.816;9.230;2023-03-08T02:23:14;5.90;82.70
4509;DHT22;2267;48.816;9.230;2023-03-08T02:28:16;5.90;82.90
4509;DHT22;2267;48.816;9.230;2023-03-08T02:30:43;5.90;82.90
4509;DHT22;2267;48.816;9.230;2023-03-08T02:33:10;5.90;82.90
4509;DHT22;2267;48.816;9.230;2023-03-08T02:35:37;5.90;83.70
4509;DHT22;2267;48.816;9.230;2023-03-08T02:38:09;5.90;82.90
4509;DHT22;2267;48.816;9.230;2023-03-08T02:40:37;6.00;83.00
4509;DHT22;2267;48.816;9.230;2023-03-08T02:43:04;6.00;83.00
4509;DHT22;2267;48.816;9.230;2023-03-08T02:45:32;6.00;82.80
4509;DHT22;2267;48.816;9.230;2023-03-08T02:48:01;5.90;82.70
4509;DHT22;2267;48.816;9.230;2023-03-08T02:50:28;5.90;82.90
4509;DHT22;2267;48.816;9.230;2023-03-08T02:52:55;6.00;83.30
4509;DHT22;2267;48.816;9.230;2023-03-08T02:55:22;5.90;83.10
4509;DHT22;2267;48.816;9.230;2023-03-08T02:57:49;6.00;83.20
4509;DHT22;2267;48.816;9.230;2023-03-08T03:00:16;5.90;84.00
4509;DHT22;2267;48.816;9.230;2023-03-08T03:02:43;6.00;83.20
4509;DHT22;2267;48.816;9.230;2023-03-08T03:05:11;6.00;84.00
4509;DHT22;2267;48.816;9.230;2023-03-08T03:07:40;6.00;83.30
4509;DHT22;2267;48.816;9.230;2023-03-08T03:10:11;6.00;83.60
4509;DHT22;2267;48.816;9.230;2023-03-08T03:12:39;6.00;83.50
4509;DHT22;2267;48.816;9.230;2023-03-08T03:15:07;6.00;83.10
4509;DHT22;2267;48.816;9.230;2023-03-08T03:17:35;6.10;83.20
4509;DHT22;2267;48.816;9.230;2023-03-08T03:20:06;6.10;83.10
4509;DHT22;2267;48.816;9.230;2023-03-08T03:22:35;6.10;83.00
4509;DHT22;2267;48.816;9.230;2023-03-08T03:25:02;6.10;83.00
4509;DHT22;2267;48.816;9.230;2023-03-08T03:27:29;6.10;83.10
4509;DHT22;2267;48.816;9.230;2023-03-08T03:29:56;6.10;83.30
4509;DHT22;2267;48.816;9.230;2023-03-08T03:32:23;6.10;83.30
4509;DHT22;2267;48.816;9.230;2023-03-08T03:34:50;6.10;83.30
4509;DHT22;2267;48.816;9.230;2023-03-08T03:37:17;6.20;83.20
4509;DHT22;2267;48.816;9.230;2023-03-08T03:39:44;6.20;83.10
4509;DHT22;2267;48.816;9.230;2023-03-08T03:42:10;6.20;82.90
4509;DHT22;2267;48.816;9.230;2023-03-08T03:44:37;6.20;83.30
4509;DHT22;2267;48.816;9.230;2023-03-08T03:47:04;6.20;82.40
4509;DHT22;2267;48.816;9.230;2023-03-08T03:49:31;6.20;82.50
4509;DHT22;2267;48.816;9.230;2023-03-08T03:51:58;6.20;82.30
4509;DHT22;2267;48.816;9.230;2023-03-08T03:54:25;6.20;82.40
4509;DHT22;2267;48.816;9.230;2023-03-08T03:56:52;6.20;82.30
4509;DHT22;2267;48.816;9.230;2023-03-08T03:59:21;6.20;82.60
4509;DHT22;2267;48.816;9.230;2023-03-08T04:01:47;6.20;83.00
4509;DHT22;2267;48.816;9.230;2023-03-08T04:04:14;6.20;82.70
4509;DHT22;2267;48.816;9.230;2023-03-08T04:06:41;6.20;82.90
4509;DHT22;2267;48.816;9.230;2023-03-08T04:09:13;6.20;82.80
4509;DHT22;2267;48.816;9.230;2023-03-08T04:11:39;6.20;82.50
4509;DHT22;2267;48.816;9.230;2023-03-08T04:14:07;6.20;82.70
4509;DHT22;2267;48.816;9.230;2023-03-08T04:16:37;6.10;82.90
4509;DHT22;2267;48.816;9.230;2023-03-08T04:19:07;6.20;82.80
4509;DHT22;2267;48.816;9.230;2023-03-08T04:21:35;6.10;82.90
4509;DHT22;2267;48.816;9.230;2023-03-08T04:24:02;6.10;82.90
4509;DHT22;2267;48.816;9.230;2023-03-08T04:26:29;6.20;83.20
4509;DHT22;2267;48.816;9.230;2023-03-08T04:28:56;6.10;83.00
4509;DHT22;2267;48.816;9.230;2023-03-08T04:31:27;6.10;83.30
4509;DHT22;2267;48.816;9.230;2023-03-08T04:33:55;6.20;83.10
4509;DHT22;2267;48.816;9.230;2023-03-08T04:36:23;6.10;83.30
4509;DHT22;2267;48.816;9.230;2023-03-08T04:38:50;6.20;83.90
4509;DHT22;2267;48.816;9.230;2023-03-08T04:41:17;6.20;83.60
4509;DHT22;2267;48.816;9.230;2023-03-08T04:43:49;6.20;83.70
4509;DHT22;2267;48.816;9.230;2023-03-08T04:46:18;6.20;83.20
4509;DHT22;2267;48.816;9.230;2023-03-08T04:48:45;6.20;83.30
4509;DHT22;2267;48.816;9.230;2023-03-08T04:51:14;6.20;83.20
4509;DHT22;2267;48.816;9.230;2023-03-08T04:53:41;6.20;83.20
4509;DHT22;2267;48.816;9.230;2023-03-08T04:56:12;6.20;83.40
4509;DHT22;2267;48.816;9.230;2023-03-08T04:58:40;6.20;83.10
4509;DHT22;2267;48.816;9.230;2023-03-08T05:01:15;6.20;82.70
4509;DHT22;2267;48.816;9.230;2023-03-08T05:03:43;6.20;82.80
4509;DHT22;2267;48.816;9.230;2023-03-08T05:06:11;6.20;82.80
4509;DHT22;2267;48.816;9.230;2023-03-08T05:08:39;6.20;82.90
4509;DHT22;2267;48.816;9.230;2023-03-08T05:11:06;6.10;82.90
4509;DHT22;2267;48.816;9.230;2023-03-08T05:13:37;6.10;83.00
4509;DHT22;2267;48.816;9.230;2023-03-08T05:16:06;6.10;83.20
4509;DHT22;2267;48.816;9.230;2023-03-08T05:18:34;6.10;83.30
4509;DHT22;2267;48.816;9.230;2023-03-08T05:21:06;6.00;83.30
4509;DHT22;2267;48.816;9.230;2023-03-08T05:23:33;6.10;83.50
4509;DHT22;2267;48.816;9.230;2023-03-08T05:26:02;6.10;83.60
4509;DHT22;2267;48.816;9.230;2023-03-08T05:28:31;6.10;83.60
4509;DHT22;2267;48.816;9.230;2023-03-08T05:33:31;6.10;84.10
4509;DHT22;2267;48.816;9.230;2023-03-08T05:35:59;6.10;83.90
4509;DHT22;2267;48.816;9.230;2023-03-08T05:38:26;6.10;84.00
4509;DHT22;2267;48.816;9.230;2023-03-08T05:40:54;6.10;84.10
4509;DHT22;2267;48.816;9.230;2023-03-08T05:43:20;6.10;84.00
4509;DHT22;2267;48.816;9.230;2023-03-08T05:45:58;6.10;84.10
4509;DHT22;2267;48.816;9.230;2023-03-08T05:48:26;6.10;84.00
4509;DHT22;2267;48.816;9.230;2023-03-08T05:50:53;6.10;84.00
4509;DHT22;2267;48.816;9.230;2023-03-08T05:53:20;6.10;84.10
4509;DHT22;2267;48.816;9.230;2023-03-08T05:55:48;6.10;84.20
4509;DHT22;2267;48.816;9.230;2023-03-08T05:58:15;6.10;84.20
4509;DHT22;2267;48.816;9.230;2023-03-08T06:00:42;6.10;84.20
4509;DHT22;2267;48.816;9.230;2023-03-08T06:03:08;6.10;84.20
4509;DHT22;2267;48.816;9.230;2023-03-08T06:05:35;6.10;84.30
4509;DHT22;2267;48.816;9.230;2023-03-08T06:08:03;6.20;84.30
4509;DHT22;2267;48.816;9.230;2023-03-08T06:10:29;6.20;84.60
4509;DHT22;2267;48.816;9.230;2023-03-08T06:12:56;6.20;84.50
4509;DHT22;2267;48.816;9.230;2023-03-08T06:15:28;6.20;84.50
4509;DHT22;2267;48.816;9.230;2023-03-08T06:17:55;6.20;84.70
4509;DHT22;2267;48.816;9.230;2023-03-08T06:20:23;6.20;84.90
4509;DHT22;2267;48.816;9.230;2023-03-08T06:22:51;6.30;84.90
4509;DHT22;2267;48.816;9.230;2023-03-08T06:25:24;6.30;84.90
4509;DHT22;2267;48.816;9.230;2023-03-08T06:27:51;6.30;84.90
4509;DHT22;2267;48.816;9.230;2023-03-08T06:30:19;6.30;85.00
4509;DHT22;2267;48.816;9.230;2023-03-08T06:33:02;6.30;85.00
4509;DHT22;2267;48.816;9.230;2023-03-08T06:35:33;6.30;85.10
4509;DHT22;2267;48.816;9.230;2023-03-08T06:38:00;6.30;85.00
4509;DHT22;2267;48.816;9.230;2023-03-08T06:40:32;6.30;85.10
4509;DHT22;2267;48.816;9.230;2023-03-08T06:43:02;6.30;85.10
4509;DHT22;2267;48.816;9.230;2023-03-08T06:45:40;6.30;85.10
4509;DHT22;2267;48.816;9.230;2023-03-08T06:48:19;6.30;85.00
4509;DHT22;2267;48.816;9.230;2023-03-08T06:50:54;6.30;85.30
4509;DHT22;2267;48.816;9.230;2023-03-08T06:53:27;6.30;85.20
4509;DHT22;2267;48.816;9.230;2023-03-08T06:55:57;6.30;85.20
4509;DHT22;2267;48.816;9.230;2023-03-08T06:58:28;6.40;85.20
4509;DHT22;2267;48.816;9.230;2023-03-08T07:01:07;6.40;85.10
4509;DHT22;2267;48.816;9.230;2023-03-08T07:03:38;6.40;85.00
4509;DHT22;2267;48.816;9.230;2023-03-08T07:06:09;6.30;84.80
4509;DHT22;2267;48.816;9.230;2023-03-08T07:08:38;6.40;84.80
4509;DHT22;2267;48.816;9.230;2023-03-08T07:11:12;6.30;84.70
4509;DHT22;2267;48.816;9.230;2023-03-08T07:13:55;6.40;85.70
4509;DHT22;2267;48.816;9.230;2023-03-08T07:16:22;6.40;85.00
4509;DHT22;2267;48.816;9.230;2023-03-08T07:18:54;6.40;85.00
4509;DHT22;2267;48.816;9.230;2023-03-08T07:21:36;6.40;84.60
4509;DHT22;2267;48.816;9.230;2023-03-08T07:24:08;6.40;84.70
4509;DHT22;2267;48.816;9.230;2023-03-08T07:26:38;6.40;84.70
4509;DHT22;2267;48.816;9.230;2023-03-08T07:29:05;6.40;84.80
4509;DHT22;2267;48.816;9.230;2023-03-08T07:31:31;6.40;84.80
4509;DHT22;2267;48.816;9.230;2023-03-08T07:34:02;6.50;84.90
4509;DHT22;2267;48.816;9.230;2023-03-08T07:36:31;6.40;84.90
4509;DHT22;2267;48.816;9.230;2023-03-08T07:38:57;6.40;85.00
4509;DHT22;2267;48.816;9.230;2023-03-08T07:41:24;6.50;85.00
4509;DHT22;2267;48.816;9.230;2023-03-08T07:43:54;6.50;85.20
4509;DHT22;2267;48.816;9.230;2023-03-08T07:46:21;6.50;85.20
4509;DHT22;2267;48.816;9.230;2023-03-08T07:48:47;6.50;85.20
4509;DHT22;2267;48.816;9.230;2023-03-08T07:51:14;6.60;85.40
4509;DHT22;2267;48.816;9.230;2023-03-08T07:53:41;6.60;85.50
4509;DHT22;2267;48.816;9.230;2023-03-08T07:56:08;6.60;85.60
4509;DHT22;2267;48.816;9.230;2023-03-08T07:58:35;6.60;85.60
4509;DHT22;2267;48.816;9.230;2023-03-08T08:01:07;6.60;85.70
4509;DHT22;2267;48.816;9.230;2023-03-08T08:03:34;6.60;86.00
4509;DHT22;2267;48.816;9.230;2023-03-08T08:06:06;6.70;86.00
4509;DHT22;2267;48.816;9.230;2023-03-08T08:08:33;6.70;86.30
4509;DHT22;2267;48.816;9.230;2023-03-08T08:11:00;6.70;85.90
4509;DHT22;2267;48.816;9.230;2023-03-08T08:13:27;6.70;86.20
4509;DHT22;2267;48.816;9.230;2023-03-08T08:15:59;6.70;86.20
4509;DHT22;2267;48.816;9.230;2023-03-08T08:18:27;6.70;86.20
4509;DHT22;2267;48.816;9.230;2023-03-08T08:21:07;6.70;86.20
4509;DHT22;2267;48.816;9.230;2023-03-08T08:23:35;6.80;86.70
4509;DHT22;2267;48.816;9.230;2023-03-08T08:26:06;6.80;87.10
4509;DHT22;2267;48.816;9.230;2023-03-08T08:28:34;6.80;87.20
4509;DHT22;2267;48.816;9.230;2023-03-08T08:31:13;6.80;87.70
4509;DHT22;2267;48.816;9.230;2023-03-08T08:33:41;6.80;87.90
4509;DHT22;2267;48.816;9.230;2023-03-08T08:36:11;6.80;88.60
4509;DHT22;2267;48.816;9.230;2023-03-08T08:38:39;6.80;89.00
4509;DHT22;2267;48.816;9.230;2023-03-08T08:41:07;6.80;89.40
4509;DHT22;2267;48.816;9.230;2023-03-08T08:43:35;6.80;89.90
4509;DHT22;2267;48.816;9.230;2023-03-08T08:46:03;6.80;90.20
4509;DHT22;2267;48.816;9.230;2023-03-08T08:48:31;6.90;90.60
4509;DHT22;2267;48.816;9.230;2023-03-08T08:51:07;6.90;90.80
4509;DHT22;2267;48.816;9.230;2023-03-08T08:53:35;6.90;91.30
4509;DHT22;2267;48.816;9.230;2023-03-08T08:56:29;6.90;91.70
4509;DHT22;2267;48.816;9.230;2023-03-08T08:58:56;6.90;92.30
4509;DHT22;2267;48.816;9.230;2023-03-08T09:01:28;6.90;92.50
4509;DHT22;2267;48.816;9.230;2023-03-08T09:03:55;6.90;92.80
4509;DHT22;2267;48.816;9.230;2023-03-08T09:06:24;6.90;92.70
4509;DHT22;2267;48.816;9.230;2023-03-08T09:08:52;6.90;93.00
4509;DHT22;2267;48.816;9.230;2023-03-08T09:11:21;6.90;92.90
4509;DHT22;2267;48.816;9.230;2023-03-08T09:13:48;6.90;92.90
4509;DHT22;2267;48.816;9.230;2023-03-08T09:16:26;6.90;93.00
4509;DHT22;2267;48.816;9.230;2023-03-08T09:18:55;6.90;93.00
4509;DHT22;2267;48.816;9.230;2023-03-08T09:21:23;6.90;93.20
4509;DHT22;2267;48.816;9.230;2023-03-08T09:23:51;6.90;93.20
4509;DHT22;2267;48.816;9.230;2023-03-08T09:26:18;6.90;93.30
4509;DHT22;2267;48.816;9.230;2023-03-08T09:28:45;7.00;93.40
4509;DHT22;2267;48.816;9.230;2023-03-08T09:31:14;7.00;93.40
4509;DHT22;2267;48.816;9.230;2023-03-08T09:33:47;7.00;93.30
4509;DHT22;2267;48.816;9.230;2023-03-08T09:36:14;7.00;93.20
4509;DHT22;2267;48.816;9.230;2023-03-08T09:38:42;7.00;93.30
4509;DHT22;2267;48.816;9.230;2023-03-08T09:46:57;7.10;93.60
4509;DHT22;2267;48.816;9.230;2023-03-08T09:49:28;7.10;93.40
4509;DHT22;2267;48.816;9.230;2023-03-08T09:52:10;7.10;93.40
4509;DHT22;2267;48.816;9.230;2023-03-08T09:54:40;7.10;93.40
4509;DHT22;2267;48.816;9.230;2023-03-08T09:57:39;7.20;93.40
4509;DHT22;2267;48.816;9.230;2023-03-08T10:00:09;7.20;93.50
4509;DHT22;2267;48.816;9.230;2023-03-08T10:08:25;7.20;93.20
4509;DHT22;2267;48.816;9.230;2023-03-08T10:10:59;7.20;93.20
4509;DHT22;2267;48.816;9.230;2023-03-08T10:13:33;7.20;93.20
4509;DHT22;2267;48.816;9.230;2023-03-08T10:18:57;7.30;93.20
4509;DHT22;2267;48.816;9.230;2023-03-08T10:21:27;7.40;93.30
4509;DHT22;2267;48.816;9.230;2023-03-08T10:24:01;7.40;93.50
4509;DHT22;2267;48.816;9.230;2023-03-08T10:26:30;7.40;93.50
4509;DHT22;2267;48.816;9.230;2023-03-08T10:28:57;7.40;93.50
4509;DHT22;2267;48.816;9.230;2023-03-08T10:31:30;7.40;93.70
4509;DHT22;2267;48.816;9.230;2023-03-08T10:39:18;7.50;94.00
4509;DHT22;2267;48.816;9.230;2023-03-08T10:41:51;7.50;93.90
4509;DHT22;2267;48.816;9.230;2023-03-08T10:44:37;7.50;94.10
4509;DHT22;2267;48.816;9.230;2023-03-08T10:47:31;7.60;94.60
4509;DHT22;2267;48.816;9.230;2023-03-08T10:50:12;7.70;96.20
4509;DHT22;2267;48.816;9.230;2023-03-08T10:52:39;7.80;96.60
4509;DHT22;2267;48.816;9.230;2023-03-08T10:55:15;7.90;97.80
4509;DHT22;2267;48.816;9.230;2023-03-08T10:57:49;8.00;98.20
4509;DHT22;2267;48.816;9.230;2023-03-08T11:00:27;8.10;98.70
4509;DHT22;2267;48.816;9.230;2023-03-08T11:03:21;8.20;98.80
4509;DHT22;2267;48.816;9.230;2023-03-08T11:11:07;8.60;99.90
4509;DHT22;2267;48.816;9.230;2023-03-08T11:13:39;8.80;99.90
4509;DHT22;2267;48.816;9.230;2023-03-08T11:25:10;9.30;99.90
4509;DHT22;2267;48.816;9.230;2023-03-08T11:41:43;9.70;99.90
4509;DHT22;2267;48.816;9.230;2023-03-08T11:52:41;10.00;99.90
4509;DHT22;2267;48.816;9.230;2023-03-08T11:57:58;10.10;99.90
4509;DHT22;2267;48.816;9.230;2023-03-08T12:00:34;10.20;99.90
4509;DHT22;2267;48.816;9.230;2023-03-08T12:03:30;10.30;99.90
4509;DHT22;2267;48.816;9.230;2023-03-08T12:06:03;10.30;99.90
4509;DHT22;2267;48.816;9.230;2023-03-08T12:08:48;10.40;99.90
4509;DHT22;2267;48.816;9.230;2023-03-08T12:11:21;10.40;99.90
4509;DHT22;2267;48.816;9.230;2023-03-08T12:13:54;10.50;99.90
4509;DHT22;2267;48.816;9.230;2023-03-08T12:16:25;10.50;99.90
4509;DHT22;2267;48.816;9.230;2023-03-08T12:22:34;10.60;99.90
4509;DHT22;2267;48.816;9.230;2023-03-08T12:27:27;10.60;99.90
4509;DHT22;2267;48.816;9.230;2023-03-08T12:32:29;10.70;99.90
4509;DHT22;2267;48.816;9.230;2023-03-08T12:35:03;10.70;99.90
4509;DHT22;2267;48.816;9.230;2023-03-08T12:37:30;10.70;99.90
4509;DHT22;2267;48.816;9.230;2023-03-08T12:40:07;10.80;99.90
4509;DHT22;2267;48.816;9.230;2023-03-08T12:43:01;10.80;99.90
4509;DHT22;2267;48.816;9.230;2023-03-08T12:45:29;10.80;99.90
4509;DHT22;2267;48.816;9.230;2023-03-08T12:50:57;10.80;99.90
4509;DHT22;2267;48.816;9.230;2023-03-08T12:53:31;10.90;99.90
4509;DHT22;2267;48.816;9.230;2023-03-08T12:58:51;11.00;99.90
4509;DHT22;2267;48.816;9.230;2023-03-08T13:03:55;11.20;99.90
4509;DHT22;2267;48.816;9.230;2023-03-08T13:08:59;11.20;99.90
4509;DHT22;2267;48.816;9.230;2023-03-08T13:11:49;11.20;99.90
4509;DHT22;2267;48.816;9.230;2023-03-08T13:20:07;11.40;99.90
4509;DHT22;2267;48.816;9.230;2023-03-08T13:30:53;11.60;99.90
4509;DHT22;2267;48.816;9.230;2023-03-08T13:33:23;11.70;99.90
4509;DHT22;2267;48.816;9.230;2023-03-08T13:36:02;11.90;99.90
4509;DHT22;2267;48.816;9.230;2023-03-08T13:38:35;12.00;99.90
4509;DHT22;2267;48.816;9.230;2023-03-08T13:41:02;12.10;99.90
4509;DHT22;2267;48.816;9.230;2023-03-08T13:43:31;12.20;99.90
4509;DHT22;2267;48.816;9.230;2023-03-08T13:46:01;12.20;99.90
4509;DHT22;2267;48.816;9.230;2023-03-08T13:48:31;12.30;99.90
4509;DHT22;2267;48.816;9.230;2023-03-08T13:51:01;12.40;99.90
4509;DHT22;2267;48.816;9.230;2023-03-08T13:53:32;12.50;99.90
4509;DHT22;2267;48.816;9.230;2023-03-08T13:56:03;12.50;99.90
4509;DHT22;2267;48.816;9.230;2023-03-08T13:58:35;12.50;99.90
4509;DHT22;2267;48.816;9.230;2023-03-08T14:01:17;12.50;99.90
4509;DHT22;2267;48.816;9.230;2023-03-08T14:03:45;12.50;99.90
4509;DHT22;2267;48.816;9.230;2023-03-08T14:06:22;12.50;99.90
4509;DHT22;2267;48.816;9.230;2023-03-08T14:08:50;12.50;99.90
4509;DHT22;2267;48.816;9.230;2023-03-08T14:11:21;12.50;99.90
4509;DHT22;2267;48.816;9.230;2023-03-08T14:13:53;12.60;99.90
4509;DHT22;2267;48.816;9.230;2023-03-08T14:18:58;12.80;99.90
4509;DHT22;2267;48.816;9.230;2023-03-08T14:21:27;12.90;99.90
4509;DHT22;2267;48.816;9.230;2023-03-08T14:24:02;12.90;99.90
4509;DHT22;2267;48.816;9.230;2023-03-08T14:26:37;12.90;99.90
4509;DHT22;2267;48.816;9.230;2023-03-08T14:29:18;12.80;99.90
4509;DHT22;2267;48.816;9.230;2023-03-08T14:34:40;12.70;99.90
4509;DHT22;2267;48.816;9.230;2023-03-08T14:39:39;12.70;99.90
4509;DHT22;2267;48.816;9.230;2023-03-08T14:42:25;12.70;99.90
4509;DHT22;2267;48.816;9.230;2023-03-08T14:44:56;12.70;99.90
4509;DHT22;2267;48.816;9.230;2023-03-08T14:47:30;12.70;99.90
4509;DHT22;2267;48.816;9.230;2023-03-08T14:52:28;12.70;99.90
4509;DHT22;2267;48.816;9.230;2023-03-08T14:54:55;12.70;99.90
4509;DHT22;2267;48.816;9.230;2023-03-08T14:57:24;12.70;99.90
4509;DHT22;2267;48.816;9.230;2023-03-08T14:59:52;12.60;99.90
4509;DHT22;2267;48.816;9.230;2023-03-08T15:02:21;12.60;99.90
4509;DHT22;2267;48.816;9.230;2023-03-08T15:04:48;12.60;99.90
4509;DHT22;2267;48.816;9.230;2023-03-08T15:07:18;12.60;99.90
4509;DHT22;2267;48.816;9.230;2023-03-08T15:09:47;12.50;99.90
4509;DHT22;2267;48.816;9.230;2023-03-08T15:12:16;12.60;99.90
4509;DHT22;2267;48.816;9.230;2023-03-08T15:14:44;12.50;99.90
4509;DHT22;2267;48.816;9.230;2023-03-08T15:17:10;12.60;99.90
4509;DHT22;2267;48.816;9.230;2023-03-08T15:19:37;12.50;99.90
4509;DHT22;2267;48.816;9.230;2023-03-08T15:22:04;12.50;99.90
4509;DHT22;2267;48.816;9.230;2023-03-08T15:24:32;12.60;99.90
4509;DHT22;2267;48.816;9.230;2023-03-08T15:26:59;12.60;99.90
4509;DHT22;2267;48.816;9.230;2023-03-08T15:29:28;12.70;99.90
4509;DHT22;2267;48.816;9.230;2023-03-08T15:31:56;12.70;99.90
4509;DHT22;2267;48.816;9.230;2023-03-08T15:34:24;12.80;99.90
4509;DHT22;2267;48.816;9.230;2023-03-08T15:36:54;12.80;99.90
4509;DHT22;2267;48.816;9.230;2023-03-08T15:39:21;12.80;99.90
4509;DHT22;2267;48.816;9.230;2023-03-08T15:41:48;12.80;99.90
4509;DHT22;2267;48.816;9.230;2023-03-08T15:44:15;12.70;99.90
4509;DHT22;2267;48.816;9.230;2023-03-08T15:46:42;12.70;99.90
4509;DHT22;2267;48.816;9.230;2023-03-08T15:49:09;13.00;99.90
4509;DHT22;2267;48.816;9.230;2023-03-08T15:51:36;12.70;99.90
4509;DHT22;2267;48.816;9.230;2023-03-08T15:54:04;12.70;99.90
4509;DHT22;2267;48.816;9.230;2023-03-08T15:56:31;12.60;99.90
4509;DHT22;2267;48.816;9.230;2023-03-08T15:58:58;12.60;99.90
4509;DHT22;2267;48.816;9.230;2023-03-08T16:01:26;12.60;99.90
4509;DHT22;2267;48.816;9.230;2023-03-08T16:03:54;12.60;99.90
4509;DHT22;2267;48.816;9.230;2023-03-08T16:06:21;12.60;99.90
4509;DHT22;2267;48.816;9.230;2023-03-08T16:08:49;12.60;99.90
4509;DHT22;2267;48.816;9.230;2023-03-08T16:11:17;12.60;99.90
4509;DHT22;2267;48.816;9.230;2023-03-08T16:13:49;12.60;99.90
4509;DHT22;2267;48.816;9.230;2023-03-08T16:16:17;12.50;99.90
4509;DHT22;2267;48.816;9.230;2023-03-08T16:18:45;12.50;99.90
4509;DHT22;2267;48.816;9.230;2023-03-08T16:21:12;12.50;99.90
4509;DHT22;2267;48.816;9.230;2023-03-08T16:23:39;12.50;99.90
4509;DHT22;2267;48.816;9.230;2023-03-08T16:26:12;12.50;99.90
4509;DHT22;2267;48.816;9.230;2023-03-08T16:28:45;12.50;99.90
4509;DHT22;2267;48.816;9.230;2023-03-08T16:31:12;12.50;99.90
4509;DHT22;2267;48.816;9.230;2023-03-08T16:33:39;12.50;99.90
4509;DHT22;2267;48.816;9.230;2023-03-08T16:36:06;12.50;99.90
4509;DHT22;2267;48.816;9.230;2023-03-08T16:38:33;12.40;99.90
4509;DHT22;2267;48.816;9.230;2023-03-08T16:41:01;12.40;99.90
4509;DHT22;2267;48.816;9.230;2023-03-08T16:43:40;12.40;99.90
4509;DHT22;2267;48.816;9.230;2023-03-08T16:46:18;12.40;99.90
4509;DHT22;2267;48.816;9.230;2023-03-08T16:48:46;12.40;99.90
4509;DHT22;2267;48.816;9.230;2023-03-08T16:51:22;12.40;99.90
4509;DHT22;2267;48.816;9.230;2023-03-08T16:53:49;12.30;99.90
4509;DHT22;2267;48.816;9.230;2023-03-08T16:56:17;12.30;99.90
4509;DHT22;2267;48.816;9.230;2023-03-08T16:58:45;12.30;99.90
4509;DHT22;2267;48.816;9.230;2023-03-08T17:01:13;12.30;99.90
4509;DHT22;2267;48.816;9.230;2023-03-08T17:03:40;12.30;99.90
4509;DHT22;2267;48.816;9.230;2023-03-08T17:06:09;12.30;99.90
4509;DHT22;2267;48.816;9.230;2023-03-08T17:08:37;12.30;99.90
4509;DHT22;2267;48.816;9.230;2023-03-08T17:11:04;12.20;99.90
4509;DHT22;2267;48.816;9.230;2023-03-08T17:13:32;12.30;99.90
4509;DHT22;2267;48.816;9.230;2023-03-08T17:15:59;12.20;99.90
4509;DHT22;2267;48.816;9.230;2023-03-08T17:18:26;12.20;99.90
4509;DHT22;2267;48.816;9.230;2023-03-08T17:20:53;12.20;99.90
4509;DHT22;2267;48.816;9.230;2023-03-08T17:23:20;12.20;99.90
4509;DHT22;2267;48.816;9.230;2023-03-08T17:25:47;12.20;99.90
4509;DHT22;2267;48.816;9.230;2023-03-08T17:28:14;12.20;99.90
4509;DHT22;2267;48.816;9.230;2023-03-08T17:30:41;12.10;99.90
4509;DHT22;2267;48.816;9.230;2023-03-08T17:33:09;12.10;99.90
4509;DHT22;2267;48.816;9.230;2023-03-08T17:35:39;12.10;99.90
4509;DHT22;2267;48.816;9.230;2023-03-08T17:38:07;12.10;99.90
4509;DHT22;2267;48.816;9.230;2023-03-08T17:40:34;12.10;99.90
4509;DHT22;2267;48.816;9.230;2023-03-08T17:43:03;12.10;99.90
4509;DHT22;2267;48.816;9.230;2023-03-08T17:45:30;12.10;99.90
4509;DHT22;2267;48.816;9.230;2023-03-08T17:47:57;12.10;99.90
4509;DHT22;2267;48.816;9.230;2023-03-08T17:50:28;12.10;99.90
4509;DHT22;2267;48.816;9.230;2023-03-08T17:52:57;12.10;99.90
4509;DHT22;2267;48.816;9.230;2023-03-08T17:55:24;12.10;99.90
4509;DHT22;2267;48.816;9.230;2023-03-08T17:57:51;12.50;99.90
4509;DHT22;2267;48.816;9.230;2023-03-08T18:00:18;12.10;99.90
4509;DHT22;2267;48.816;9.230;2023-03-08T18:02:45;12.10;99.90
4509;DHT22;2267;48.816;9.230;2023-03-08T18:05:12;12.10;99.90
4509;DHT22;2267;48.816;9.230;2023-03-08T18:07:39;12.10;99.90
4509;DHT22;2267;48.816;9.230;2023-03-08T18:10:08;12.10;99.90
4509;DHT22;2267;48.816;9.230;2023-03-08T18:12:36;12.10;99.90
4509;DHT22;2267;48.816;9.230;2023-03-08T18:15:04;12.10;99.90
4509;DHT22;2267;48.816;9.230;2023-03-08T18:17:32;12.10;99.90
4509;DHT22;2267;48.816;9.230;2023-03-08T18:20:00;12.10;99.90
4509;DHT22;2267;48.816;9.230;2023-03-08T18:22:27;12.10;99.90